Time;durP1;ratioP1;P1;durP2;ratioP2;P2;SDS_P1;SDS_P2;PMS_P1;PMS_P2;Temp;Humidity;BMP_temperature;BMP_pressure;BME280_temperature;BME280_humidity;BME280_pressure;Samples;Min_cycle;Max_cycle;Signal;HPM_P1;HPM_P2
2020/12/30 00:01:10;;;;;;;25.57;4.78;;;;;;;8.47;100.00;100852.84;1797536;79;21146;-61
2020/12/30 00:03:37;;;;;;;23.20;4.50;;;;;;;8.42;100.00;100854.76;1797615;79;21047;-61
2020/12/30 00:06:05;;;;;;;25.55;5.15;;;;;;;8.37;100.00;100863.36;1797604;79;21360;-61
2020/12/30 00:08:32;;;;;;;23.55;5.20;;;;;;;8.28;100.00;100855.95;1797486;79;21165;-60
2020/12/30 00:11:00;;;;;;;18.48;4.42;;;;;;;8.22;100.00;100857.45;1797560;79;21117;-61
2020/12/30 00:13:27;;;;;;;28.80;6.12;;;;;;;8.19;100.00;100859.34;1797473;79;21070;-61
2020/12/30 00:15:56;;;;;;;20.40;5.28;;;;;;;8.18;100.00;100863.78;1797708;79;21058;-61
2020/12/30 00:18:23;;;;;;;22.35;4.60;;;;;;;8.19;100.00;100870.87;1797545;79;21339;-61
2020/12/30 00:20:51;;;;;;;19.57;4.12;;;;;;;8.19;100.00;100875.36;1797502;79;21121;-61
2020/12/30 00:23:18;;;;;;;15.32;4.33;;;;;;;8.20;100.00;100877.98;1797731;79;21057;-60
2020/12/30 00:25:46;;;;;;;25.90;5.00;;;;;;;8.19;100.00;100868.20;1797595;79;21627;-61
2020/12/30 00:28:13;;;;;;;18.00;4.33;;;;;;;8.21;100.00;100869.05;1797668;79;21177;-61
2020/12/30 00:30:41;;;;;;;23.75;4.60;;;;;;;8.22;100.00;100862.79;1797612;79;21346;-62
2020/12/30 00:33:09;;;;;;;19.50;4.40;;;;;;;8.23;100.00;100857.87;1797483;79;21106;-61
2020/12/30 00:35:36;;;;;;;21.55;4.80;;;;;;;8.24;100.00;100860.95;1797499;79;21130;-62
2020/12/30 00:38:04;;;;;;;21.52;4.62;;;;;;;8.22;100.00;100853.92;1772356;79;21145;-60
2020/12/30 00:40:32;;;;;;;25.52;5.03;;;;;;;8.21;100.00;100854.83;1765964;81;21141;-60
2020/12/30 00:43:00;;;;;;;16.25;3.83;;;;;;;8.16;100.00;100849.59;1766098;81;21727;-61
2020/12/30 00:45:27;;;;;;;24.75;5.50;;;;;;;8.13;100.00;100851.00;1765965;81;21113;-61
2020/12/30 00:47:55;;;;;;;16.62;4.15;;;;;;;8.11;100.00;100855.02;1766112;81;21062;-61
2020/12/30 00:50:23;;;;;;;19.67;5.10;;;;;;;8.08;100.00;100853.77;1777672;79;21142;-61
2020/12/30 00:52:51;;;;;;;18.65;4.53;;;;;;;8.07;100.00;100845.34;1797564;79;21149;-61
2020/12/30 00:57:53;;;;;;;29.00;5.57;;;;;;;8.13;100.00;100846.99;1873066;76;24569;-61
2020/12/30 01:00:20;;;;;;;23.60;5.72;;;;;;;8.08;100.00;100848.91;1840921;78;20922;-62
2020/12/30 01:03:06;;;;;;;23.57;4.90;;;;;;;8.08;100.00;100851.09;1840807;78;21407;-60
2020/12/30 01:05:34;;;;;;;28.75;4.45;;;;;;;8.10;100.00;100843.06;1840844;78;20953;-60
2020/12/30 01:08:01;;;;;;;25.20;4.72;;;;;;;8.09;100.00;100839.97;1840885;77;20933;-62
2020/12/30 01:10:29;;;;;;;18.52;4.03;;;;;;;8.11;100.00;100851.49;1840824;78;20989;-61
2020/12/30 01:12:56;;;;;;;17.05;3.87;;;;;;;8.11;100.00;100848.34;1840901;78;21004;-61
2020/12/30 01:15:24;;;;;;;15.72;4.25;;;;;;;8.14;100.00;100840.73;1840828;78;21316;-60
2020/12/30 01:17:52;;;;;;;24.65;4.62;;;;;;;8.15;100.00;100846.50;1840849;78;20937;-60
2020/12/30 01:20:21;;;;;;;18.95;4.08;;;;;;;8.20;100.00;100842.39;1840924;78;20977;-59
2020/12/30 01:22:50;;;;;;;20.72;4.40;;;;;;;8.23;100.00;100837.84;1840928;78;21572;-61
2020/12/30 01:25:17;;;;;;;21.30;4.80;;;;;;;8.26;100.00;100832.41;1840854;78;21590;-61
2020/12/30 01:27:45;;;;;;;30.17;5.45;;;;;;;8.29;100.00;100828.80;1840822;78;21393;-60
2020/12/30 01:30:12;;;;;;;24.63;4.90;;;;;;;8.31;100.00;100823.86;1840738;78;20950;-60
2020/12/30 01:32:40;;;;;;;17.12;3.83;;;;;;;8.35;100.00;100822.44;1840898;78;21000;-61
2020/12/30 01:35:08;;;;;;;20.02;4.15;;;;;;;8.38;100.00;100822.36;1840764;78;21124;-61
2020/12/30 01:37:36;;;;;;;19.60;3.80;;;;;;;8.40;100.00;100824.53;1831060;78;21130;-61
2020/12/30 01:40:04;;;;;;;20.00;4.10;;;;;;;8.44;100.00;100825.77;1824734;77;21352;-61
2020/12/30 01:42:46;;;;;;;20.45;4.05;;;;;;;8.46;100.00;100820.36;1824745;77;20955;-60
2020/12/30 01:45:14;;;;;;;18.25;3.60;;;;;;;8.49;100.00;100827.44;1819793;78;21158;-61
2020/12/30 01:47:44;;;;;;;21.07;4.10;;;;;;;8.51;100.00;100829.20;1824858;78;20976;-62
2020/12/30 01:50:14;;;;;;;22.22;3.95;;;;;;;8.51;100.00;100825.64;1829570;78;21088;-60
2020/12/30 01:52:42;;;;;;;29.23;4.72;;;;;;;8.50;100.00;100820.73;1840841;78;21181;-61
2020/12/30 01:55:11;;;;;;;24.57;4.10;;;;;;;8.50;100.00;100816.73;1840789;78;20942;-61
2020/12/30 01:57:39;;;;;;;22.67;4.10;;;;;;;8.51;100.00;100814.95;1840732;77;21540;-61
2020/12/30 02:00:09;;;;;;;28.00;4.80;;;;;;;8.52;100.00;100810.91;1840770;78;20993;-61
2020/12/30 02:02:38;;;;;;;17.87;3.67;;;;;;;8.55;100.00;100813.95;1831394;78;21108;-61
2020/12/30 02:05:07;;;;;;;20.55;4.05;;;;;;;8.57;100.00;100821.47;1807783;79;21526;-60
2020/12/30 02:07:35;;;;;;;24.25;4.50;;;;;;;8.57;100.00;100815.67;1807544;79;20934;-61
2020/12/30 02:10:02;;;;;;;21.27;3.80;;;;;;;8.56;100.00;100807.68;1753445;79;21065;-61
2020/12/30 02:12:30;;;;;;;31.33;4.67;;;;;;;8.58;100.00;100805.84;1807210;79;21068;-61
2020/12/30 02:14:57;;;;;;;23.30;4.10;;;;;;;8.60;100.00;100798.66;1807277;79;21203;-60
2020/12/30 02:17:25;;;;;;;25.40;4.53;;;;;;;8.63;100.00;100797.72;1807261;79;21713;-60
2020/12/30 02:19:52;;;;;;;21.87;4.35;;;;;;;8.64;100.00;100808.38;1807230;79;21382;-61
2020/12/30 02:22:23;;;;;;;25.75;4.70;;;;;;;8.66;100.00;100802.98;1807269;79;21432;-61
2020/12/30 02:24:51;;;;;;;25.02;4.78;;;;;;;8.68;100.00;100814.50;1778203;79;20969;-60
2020/12/30 02:27:19;;;;;;;27.17;4.55;;;;;;;8.71;100.00;100815.75;1807181;79;21111;-61
2020/12/30 02:29:46;;;;;;;23.02;4.35;;;;;;;8.74;100.00;100815.70;1807330;79;22204;-60
2020/12/30 02:32:14;;;;;;;20.45;4.17;;;;;;;8.77;100.00;100822.30;1807108;79;20938;-61
2020/12/30 02:34:41;;;;;;;29.07;5.08;;;;;;;8.80;100.00;100823.55;1807259;79;21049;-63
2020/12/30 02:37:09;;;;;;;25.65;4.80;;;;;;;8.84;100.00;100822.98;1814154;78;20987;-61
2020/12/30 02:39:36;;;;;;;25.65;5.00;;;;;;;8.85;100.00;100817.61;1824097;78;21122;-62
2020/12/30 02:42:04;;;;;;;22.65;4.42;;;;;;;8.89;100.00;100818.42;1824138;78;21414;-61
2020/12/30 02:44:31;;;;;;;21.17;3.90;;;;;;;8.92;100.00;100812.09;1824084;78;21059;-61
2020/12/30 02:46:59;;;;;;;19.27;3.80;;;;;;;8.94;100.00;100824.95;1824070;78;21145;-61
2020/12/30 02:49:26;;;;;;;21.85;4.15;;;;;;;8.96;100.00;100821.81;1824152;78;21004;-61
2020/12/30 02:51:54;;;;;;;17.77;3.47;;;;;;;8.97;100.00;100814.20;1807285;79;21122;-62
2020/12/30 02:54:21;;;;;;;19.30;3.85;;;;;;;8.98;100.00;100819.97;1807126;79;21463;-60
2020/12/30 02:56:49;;;;;;;18.12;4.12;;;;;;;8.98;100.00;100819.97;1807032;79;21016;-61
2020/12/30 02:59:17;;;;;;;20.60;3.60;;;;;;;8.99;100.00;100829.27;1807191;79;20989;-61
2020/12/30 03:01:45;;;;;;;21.30;4.17;;;;;;;8.99;100.00;100822.59;1807212;79;20938;-61
2020/12/30 03:04:12;;;;;;;21.87;4.65;;;;;;;9.01;100.00;100814.53;1807155;79;20926;-61
2020/12/30 03:06:40;;;;;;;17.67;4.03;;;;;;;9.04;100.00;100818.45;1807189;79;21408;-60
2020/12/30 03:09:07;;;;;;;19.00;3.50;;;;;;;9.05;100.00;100817.98;1807116;79;21139;-61
2020/12/30 03:11:35;;;;;;;25.17;4.30;;;;;;;9.08;100.00;100809.91;1807189;79;21048;-61
2020/12/30 03:14:03;;;;;;;17.40;4.25;;;;;;;9.10;100.00;100798.22;1807177;79;20930;-61
2020/12/30 03:16:30;;;;;;;25.15;4.20;;;;;;;9.13;100.00;100800.80;1807162;79;21053;-60
2020/12/30 03:18:58;;;;;;;17.07;3.80;;;;;;;9.17;100.00;100805.17;1807136;79;21366;-60
2020/12/30 03:21:25;;;;;;;19.55;4.30;;;;;;;9.21;100.00;100807.76;1807079;79;21166;-61
2020/12/30 03:23:53;;;;;;;23.47;4.10;;;;;;;9.22;100.00;100806.83;1807194;79;21060;-61
2020/12/30 03:26:20;;;;;;;26.45;4.47;;;;;;;9.24;100.00;100799.64;1807096;79;21068;-61
2020/12/30 03:28:48;;;;;;;15.05;3.85;;;;;;;9.23;100.00;100796.55;1807179;79;20926;-60
2020/12/30 03:31:16;;;;;;;23.67;4.05;;;;;;;9.23;100.00;100799.22;1807330;79;22344;-62
2020/12/30 03:33:43;;;;;;;25.27;4.03;;;;;;;9.23;100.00;100799.22;1807151;79;21365;-61
2020/12/30 03:36:11;;;;;;;21.48;4.08;;;;;;;9.22;100.00;100798.80;1807436;78;21188;-61
2020/12/30 03:38:39;;;;;;;25.23;4.17;;;;;;;9.20;100.00;100797.98;1827267;78;21051;-61
2020/12/30 03:41:06;;;;;;;19.92;4.12;;;;;;;9.19;100.00;100795.75;1827207;78;21118;-61
2020/12/30 03:43:34;;;;;;;22.60;4.10;;;;;;;9.17;100.00;100797.14;1827321;78;21346;-61
2020/12/30 03:46:02;;;;;;;25.45;4.50;;;;;;;9.21;100.00;100794.38;1827256;78;20988;-60
2020/12/30 03:48:30;;;;;;;23.67;4.10;;;;;;;9.21;100.00;100799.73;1827234;78;21133;-61
2020/12/30 03:50:57;;;;;;;21.90;3.60;;;;;;;9.22;100.00;100796.99;1835067;78;21104;-62
2020/12/30 03:53:26;;;;;;;20.37;4.12;;;;;;;9.24;100.00;100802.31;1840129;78;20914;-61
2020/12/30 03:55:53;;;;;;;20.52;4.17;;;;;;;9.25;100.00;100804.92;1840174;78;21259;-62
2020/12/30 03:58:21;;;;;;;25.75;4.72;;;;;;;9.29;100.00;100804.39;1840033;77;21974;-61
2020/12/30 04:00:48;;;;;;;18.45;3.92;;;;;;;9.31;100.00;100801.20;1840114;78;20996;-61
2020/12/30 04:03:16;;;;;;;21.60;4.37;;;;;;;9.32;100.00;100808.31;1840051;78;21183;-62
2020/12/30 04:05:43;;;;;;;19.17;4.20;;;;;;;9.33;100.00;100806.05;1840112;78;21033;-61
2020/12/30 04:08:11;;;;;;;26.90;4.37;;;;;;;9.32;100.00;100810.98;1840098;78;21691;-61
2020/12/30 04:10:38;;;;;;;17.73;3.75;;;;;;;9.30;100.00;100811.05;1840063;78;20977;-61
2020/12/30 04:13:06;;;;;;;18.12;3.70;;;;;;;9.29;100.00;100811.97;1840048;78;21013;-62
2020/12/30 04:15:34;;;;;;;22.40;4.15;;;;;;;9.26;100.00;100817.38;1840038;78;21056;-61
2020/12/30 04:18:02;;;;;;;22.70;4.40;;;;;;;9.26;100.00;100821.88;1840133;78;20950;-61
2020/12/30 04:20:30;;;;;;;29.85;5.12;;;;;;;9.25;100.00;100824.13;1840071;78;21754;-61
2020/12/30 04:22:57;;;;;;;18.37;4.17;;;;;;;9.23;100.00;100817.95;1840003;78;21114;-62
2020/12/30 04:25:25;;;;;;;21.62;4.37;;;;;;;9.23;100.00;100821.97;1840052;78;20922;-61
2020/12/30 04:27:52;;;;;;;21.90;4.60;;;;;;;9.22;100.00;100822.89;1840072;78;21025;-61
2020/12/30 04:30:20;;;;;;;23.55;4.08;;;;;;;9.21;100.00;100815.78;1840061;78;21088;-61
2020/12/30 04:32:48;;;;;;;18.55;3.87;;;;;;;9.17;100.00;100817.21;1840047;78;21447;-61
2020/12/30 04:35:15;;;;;;;23.40;4.78;;;;;;;9.16;100.00;100828.80;1840057;78;20926;-60
2020/12/30 04:37:43;;;;;;;21.10;4.67;;;;;;;9.15;100.00;100837.75;1831669;78;21054;-62
2020/12/30 04:40:10;;;;;;;19.40;4.53;;;;;;;9.16;100.00;100840.84;1827159;77;21042;-61
2020/12/30 04:42:38;;;;;;;22.52;5.15;;;;;;;9.15;100.00;100831.06;1827231;78;21079;-61
2020/12/30 04:45:09;;;;;;;20.17;4.65;;;;;;;9.11;100.00;100821.84;1827327;78;21472;-61
2020/12/30 04:47:37;;;;;;;17.00;4.65;;;;;;;9.08;100.00;100821.46;1827120;78;21195;-61
2020/12/30 04:50:05;;;;;;;22.42;5.37;;;;;;;9.05;100.00;100828.23;1830472;78;21116;-61
2020/12/30 04:52:32;;;;;;;25.57;5.37;;;;;;;9.05;100.00;100824.22;1840048;78;20927;-61
2020/12/30 04:55:00;;;;;;;22.32;4.65;;;;;;;9.06;100.00;100819.73;1840081;78;21112;-61
2020/12/30 04:57:59;;;;;;;21.93;5.45;;;;;;;9.04;100.00;100814.45;1839883;77;21404;-61
2020/12/30 05:00:26;;;;;;;19.55;4.42;;;;;;;9.03;100.00;100823.39;1839363;78;21187;-61
2020/12/30 05:02:54;;;;;;;25.82;5.78;;;;;;;9.02;100.00;100831.00;1840134;78;20882;-61
2020/12/30 05:05:22;;;;;;;31.25;5.17;;;;;;;9.02;100.00;100843.03;1840108;78;21041;-60
2020/12/30 05:07:50;;;;;;;26.95;5.87;;;;;;;9.02;100.00;100844.38;1840119;78;21103;-62
2020/12/30 05:10:17;;;;;;;18.32;5.22;;;;;;;9.05;100.00;100839.38;1840015;78;21336;-61
2020/12/30 05:12:45;;;;;;;26.95;5.50;;;;;;;9.04;100.00;100830.49;1840059;78;21040;-61
2020/12/30 05:15:12;;;;;;;22.73;5.53;;;;;;;9.06;100.00;100832.66;1840242;78;21036;-61
2020/12/30 05:17:40;;;;;;;20.97;5.33;;;;;;;9.08;100.00;100836.17;1840163;78;21207;-61
2020/12/30 05:20:09;;;;;;;28.92;5.97;;;;;;;9.08;100.00;100834.83;1840149;78;21135;-61
2020/12/30 05:22:37;;;;;;;24.10;4.85;;;;;;;9.09;100.00;100846.42;1839986;78;21182;-62
2020/12/30 05:25:06;;;;;;;21.70;5.97;;;;;;;9.05;100.00;100840.27;1839910;78;21151;-61
2020/12/30 05:27:36;;;;;;;36.80;6.60;;;;;;;9.02;100.00;100840.36;1840010;78;21052;-62
2020/12/30 05:30:04;;;;;;;21.23;5.55;;;;;;;8.97;100.00;100843.63;1839990;78;21045;-61
2020/12/30 05:32:36;;;;;;;22.20;5.85;;;;;;;8.92;100.00;100835.72;1840005;78;21071;-61
2020/12/30 05:35:04;;;;;;;23.35;5.10;;;;;;;8.88;100.00;100838.92;1840047;78;21414;-61
2020/12/30 05:37:34;;;;;;;25.10;5.92;;;;;;;8.85;100.00;100843.02;1839320;78;21072;-62
2020/12/30 05:40:01;;;;;;;20.37;4.80;;;;;;;8.84;100.00;100842.59;1840041;78;21052;-61
2020/12/30 05:42:29;;;;;;;19.52;4.50;;;;;;;8.86;100.00;100842.09;1840010;78;20934;-62
2020/12/30 05:44:57;;;;;;;25.57;5.12;;;;;;;8.86;100.00;100839.90;1840324;78;21166;-60
2020/12/30 05:47:26;;;;;;;23.50;5.33;;;;;;;8.88;100.00;100844.75;1840415;78;22804;-60
2020/12/30 05:49:55;;;;;;;24.27;5.17;;;;;;;8.87;100.00;100843.84;1840127;78;21025;-64
2020/12/30 05:52:24;;;;;;;23.15;5.60;;;;;;;8.87;100.00;100851.88;1840209;77;21135;-61
2020/12/30 05:54:59;;;;;;;20.90;5.30;;;;;;;8.86;100.00;100856.80;1840205;78;21104;-62
2020/12/30 05:57:37;;;;;;;28.42;5.45;;;;;;;8.86;100.00;100851.45;1814177;78;21123;-62
2020/12/30 06:00:13;;;;;;;21.55;5.78;;;;;;;8.85;100.00;100847.03;1807232;79;21297;-61
2020/12/30 06:02:43;;;;;;;22.35;5.37;;;;;;;8.83;100.00;100847.97;1807068;79;21096;-61
2020/12/30 06:05:20;;;;;;;21.68;5.10;;;;;;;8.79;100.00;100849.87;1807204;79;21114;-61
2020/12/30 06:07:49;;;;;;;21.20;5.53;;;;;;;8.77;100.00;100846.36;1807092;79;21100;-62
2020/12/30 06:10:18;;;;;;;21.35;5.37;;;;;;;8.75;100.00;100842.86;1807213;79;21559;-62
2020/12/30 06:12:52;;;;;;;24.07;5.35;;;;;;;8.74;100.00;100848.64;1807175;79;21523;-62
2020/12/30 06:15:23;;;;;;;25.08;5.70;;;;;;;8.78;100.00;100842.77;1807100;79;21128;-61
2020/12/30 06:18:03;;;;;;;31.20;5.75;;;;;;;8.80;100.00;100838.25;1807165;79;21174;-62
2020/12/30 06:20:36;;;;;;;23.95;6.10;;;;;;;8.86;100.00;100844.77;1807143;79;21139;-61
2020/12/30 06:23:13;;;;;;;19.27;5.62;;;;;;;8.92;100.00;100842.84;1807195;79;21061;-62
2020/12/30 06:25:45;;;;;;;21.17;5.17;;;;;;;8.97;100.00;100841.81;1807152;79;21351;-62
2020/12/30 06:28:20;;;;;;;22.80;5.33;;;;;;;9.03;100.00;100852.81;1807155;79;21484;-62
2020/12/30 06:30:50;;;;;;;26.00;6.15;;;;;;;9.09;100.00;100852.63;1807261;79;20997;-62
2020/12/30 06:33:23;;;;;;;22.42;4.65;;;;;;;9.16;100.00;100859.56;1807182;79;21187;-61
2020/12/30 06:35:55;;;;;;;23.12;4.85;;;;;;;9.22;100.00;100856.33;1807215;78;21080;-62
2020/12/30 06:38:25;;;;;;;26.40;4.90;;;;;;;9.23;100.00;100867.44;1822689;78;21408;-62
2020/12/30 06:41:00;;;;;;;20.12;5.42;;;;;;;9.24;100.00;100858.02;1823998;78;21051;-62
2020/12/30 06:43:48;;;;;;;21.40;5.87;;;;;;;9.27;100.00;100869.11;1824118;78;28563;-62
2020/12/30 06:46:29;;;;;;;28.15;5.65;;;;;;;9.33;100.00;100874.75;1824101;78;21550;-65
2020/12/30 06:48:59;;;;;;;18.30;5.00;;;;;;;9.37;100.00;100873.27;1787626;80;21541;-62
2020/12/30 06:51:38;;;;;;;35.55;5.67;;;;;;;9.40;100.00;100877.66;1778158;80;21368;-61
2020/12/30 06:54:06;;;;;;;23.22;5.00;;;;;;;9.41;100.00;100880.31;1778399;79;21577;-62
2020/12/30 06:56:41;;;;;;;19.73;4.65;;;;;;;9.40;100.00;100877.22;1778311;80;20947;-63
2020/12/30 06:59:11;;;;;;;20.97;5.03;;;;;;;9.39;100.00;100879.45;1792065;79;21113;-61
2020/12/30 07:02:03;;;;;;;24.85;5.17;;;;;;;9.38;100.00;100877.70;1798265;79;21201;-61
2020/12/30 07:04:32;;;;;;;16.65;4.85;;;;;;;9.41;100.00;100864.26;1798346;79;21361;-62
2020/12/30 07:07:01;;;;;;;22.60;5.42;;;;;;;9.50;100.00;100867.58;1798309;79;20955;-61
2020/12/30 07:09:38;;;;;;;20.80;4.45;;;;;;;9.56;100.00;100870.97;1798344;79;20932;-61
2020/12/30 07:12:07;;;;;;;27.13;4.95;;;;;;;9.62;100.00;100864.56;1798396;79;21107;-62
2020/12/30 07:14:37;;;;;;;23.40;5.65;;;;;;;9.65;100.00;100876.52;1798519;79;21122;-62
2020/12/30 07:17:11;;;;;;;18.37;4.58;;;;;;;9.68;100.00;100859.02;1798382;79;21543;-62
2020/12/30 07:19:41;;;;;;;18.42;5.42;;;;;;;9.72;100.00;100855.33;1798283;79;21106;-62
2020/12/30 07:22:12;;;;;;;22.40;5.33;;;;;;;9.77;100.00;100866.34;1798410;79;21106;-61
2020/12/30 07:24:53;;;;;;;22.20;5.40;;;;;;;9.82;100.00;100868.42;1798313;79;21532;-62
2020/12/30 07:27:24;;;;;;;17.55;5.40;;;;;;;9.86;100.00;100867.44;1798381;79;21042;-62
2020/12/30 07:29:51;;;;;;;19.35;4.97;;;;;;;9.90;100.00;100862.39;1798215;79;21375;-62
2020/12/30 07:32:19;;;;;;;25.62;5.20;;;;;;;9.96;100.00;100874.73;1798318;79;21549;-62
2020/12/30 07:34:48;;;;;;;26.37;5.92;;;;;;;9.98;100.00;100875.56;1798194;79;21039;-61
2020/12/30 07:37:16;;;;;;;23.98;5.60;;;;;;;9.98;100.00;100874.22;1796413;79;21078;-62
2020/12/30 07:39:45;;;;;;;18.70;5.17;;;;;;;9.91;100.00;100881.55;1798371;79;21039;-62
2020/12/30 07:42:23;;;;;;;20.25;5.33;;;;;;;9.83;100.00;100874.19;1798508;79;22297;-62
2020/12/30 07:44:55;;;;;;;23.18;5.62;;;;;;;9.77;100.00;100865.02;1798265;79;21066;-61
2020/12/30 07:47:24;;;;;;;24.12;5.42;;;;;;;9.73;100.00;100870.46;1798325;79;21120;-62
2020/12/30 07:50:02;;;;;;;19.50;5.67;;;;;;;9.76;100.00;100866.83;1798335;79;21050;-61
2020/12/30 07:52:29;;;;;;;25.02;5.33;;;;;;;9.83;100.00;100879.10;1798043;79;21141;-62
2020/12/30 07:54:58;;;;;;;20.57;5.33;;;;;;;9.93;100.00;100878.81;1798252;79;21306;-62
2020/12/30 07:57:26;;;;;;;31.20;5.83;;;;;;;9.99;100.00;100884.87;1798288;79;21622;-61
2020/12/30 07:59:56;;;;;;;15.78;5.42;;;;;;;10.03;100.00;100890.54;1798231;79;21597;-62
2020/12/30 08:02:24;;;;;;;20.32;5.78;;;;;;;10.07;100.00;100885.11;1798345;79;21047;-61
2020/12/30 08:05:01;;;;;;;20.25;5.70;;;;;;;10.07;100.00;100887.80;1798377;79;21022;-61
2020/12/30 08:07:31;;;;;;;18.87;5.17;;;;;;;10.06;100.00;100880.65;1798232;79;21340;-63
2020/12/30 08:09:59;;;;;;;22.02;5.45;;;;;;;10.01;100.00;100883.50;1798218;79;21113;-61
2020/12/30 08:12:27;;;;;;;22.55;6.12;;;;;;;9.97;100.00;100900.11;1798314;79;21149;-63
2020/12/30 08:14:55;;;;;;;22.17;6.60;;;;;;;9.95;100.00;100887.23;1798264;79;21046;-62
2020/12/30 08:17:23;;;;;;;25.92;7.05;;;;;;;9.95;100.00;100888.56;1798413;79;21477;-63
2020/12/30 08:19:51;;;;;;;26.33;6.92;;;;;;;9.98;100.00;100890.29;1798322;79;21341;-61
2020/12/30 08:22:24;;;;;;;23.20;6.95;;;;;;;10.04;100.00;100900.33;1798154;79;21122;-63
2020/12/30 08:24:57;;;;;;;21.07;6.00;;;;;;;10.09;100.00;100903.36;1798293;79;21065;-62
2020/12/30 08:27:30;;;;;;;24.43;6.55;;;;;;;10.10;100.00;100899.75;1798190;79;21150;-61
2020/12/30 08:30:00;;;;;;;21.12;5.67;;;;;;;10.10;100.00;100889.89;1798455;79;21105;-62
2020/12/30 08:32:38;;;;;;;27.70;5.80;;;;;;;10.08;100.00;100893.56;1798276;79;21354;-62
2020/12/30 08:35:18;;;;;;;31.15;6.08;;;;;;;10.04;100.00;100896.31;1798261;79;21162;-63
2020/12/30 08:38:11;;;;;;;24.45;6.08;;;;;;;10.04;100.00;100886.94;1774388;79;21127;-62
2020/12/30 08:40:41;;;;;;;19.70;5.97;;;;;;;10.08;100.00;100883.70;1774968;80;21127;-62
2020/12/30 08:43:36;;;;;;;20.70;6.12;;;;;;;10.11;100.00;100872.89;1763364;81;21160;-63
2020/12/30 08:46:06;;;;;;;16.70;4.80;;;;;;;10.14;100.00;100882.17;1775176;80;21379;-62
2020/12/30 08:48:39;;;;;;;32.63;8.20;;;;;;;10.16;100.00;100880.31;1763189;81;21059;-63
2020/12/30 08:51:07;;;;;;;26.87;7.53;;;;;;;10.23;100.00;100882.35;1779468;80;21604;-60
2020/12/30 08:53:38;;;;;;;23.05;5.80;;;;;;;10.28;100.00;100882.21;1798348;79;21067;-62
2020/12/30 08:56:06;;;;;;;15.43;5.10;;;;;;;10.31;100.00;100883.00;1798338;79;21039;-62
2020/12/30 08:58:34;;;;;;;21.82;5.30;;;;;;;10.35;100.00;100883.77;1796953;78;21252;-62
2020/12/30 09:01:04;;;;;;;19.90;5.12;;;;;;;10.40;100.00;100878.27;1789248;80;21543;-63
2020/12/30 09:03:32;;;;;;;22.70;6.28;;;;;;;10.48;100.00;100886.95;1789080;80;21166;-62
2020/12/30 09:06:01;;;;;;;25.52;7.70;;;;;;;10.52;100.00;100872.55;1789339;79;21177;-63
2020/12/30 09:08:29;;;;;;;24.92;5.22;;;;;;;10.55;100.00;100871.55;1789263;79;21116;-62
2020/12/30 09:10:58;;;;;;;19.55;5.03;;;;;;;10.56;100.00;100870.63;1789375;80;21514;-63
2020/12/30 09:13:30;;;;;;;15.80;5.08;;;;;;;10.59;100.00;100870.52;1789255;80;21147;-63
2020/12/30 09:16:04;;;;;;;19.35;6.08;;;;;;;10.60;100.00;100866.45;1789351;79;21102;-63
2020/12/30 09:18:33;;;;;;;22.10;5.78;;;;;;;10.63;100.00;100860.58;1789343;80;21098;-63
2020/12/30 09:21:00;;;;;;;19.42;6.30;;;;;;;10.65;100.00;100861.40;1789494;80;21105;-62
2020/12/30 09:23:28;;;;;;;18.32;5.17;;;;;;;10.68;100.00;100861.30;1789426;80;21358;-63
2020/12/30 09:25:59;;;;;;;18.87;5.25;;;;;;;10.71;100.00;100871.91;1789451;80;21055;-61
2020/12/30 09:28:27;;;;;;;14.98;5.58;;;;;;;10.74;100.00;100870.49;1789508;80;21141;-61
2020/12/30 09:30:56;;;;;;;20.70;5.08;;;;;;;10.79;100.00;100866.30;1789426;80;21150;-62
2020/12/30 09:33:25;;;;;;;17.25;5.92;;;;;;;10.82;100.00;100863.05;1789530;80;21050;-62
2020/12/30 09:35:53;;;;;;;22.05;5.70;;;;;;;10.85;99.61;100877.70;1789444;80;21354;-61
2020/12/30 09:38:23;;;;;;;19.23;5.65;;;;;;;10.85;99.19;100874.16;1757764;80;21065;-61
2020/12/30 09:40:52;;;;;;;19.07;4.70;;;;;;;10.84;98.81;100862.53;1771395;81;21524;-62
2020/12/30 09:43:23;;;;;;;24.25;5.08;;;;;;;10.84;98.53;100873.26;1754949;81;22193;-64
2020/12/30 09:45:57;;;;;;;21.85;5.05;;;;;;;10.84;98.23;100869.23;1771282;81;21139;-64
2020/12/30 09:48:24;;;;;;;20.27;5.80;;;;;;;10.86;98.22;100852.62;1754762;81;21525;-62
2020/12/30 09:50:53;;;;;;;19.15;5.37;;;;;;;10.91;98.08;100857.84;1775891;80;21070;-63
2020/12/30 09:53:23;;;;;;;19.45;5.50;;;;;;;10.96;98.33;100854.52;1778028;80;21182;-61
2020/12/30 09:55:51;;;;;;;21.33;5.25;;;;;;;11.04;98.48;100869.02;1778049;80;21137;-62
2020/12/30 09:58:18;;;;;;;15.93;4.97;;;;;;;11.11;98.04;100846.87;1778085;80;21089;-62
2020/12/30 10:00:46;;;;;;;19.82;5.12;;;;;;;11.13;97.59;100842.33;1781489;80;21690;-63
2020/12/30 10:03:14;;;;;;;20.62;5.95;;;;;;;11.16;97.44;100852.49;1781923;80;21161;-62
2020/12/30 10:05:42;;;;;;;20.08;5.22;;;;;;;11.21;97.17;100859.50;1781889;80;21058;-62
2020/12/30 10:08:09;;;;;;;20.75;5.20;;;;;;;11.22;96.47;100857.22;1782076;80;21110;-62
2020/12/30 10:10:36;;;;;;;18.02;4.95;;;;;;;11.20;95.74;100860.43;1782075;80;21224;-62
2020/12/30 10:13:04;;;;;;;20.02;4.70;;;;;;;11.15;95.17;100850.71;1782053;80;21385;-63
2020/12/30 10:15:32;;;;;;;19.52;5.10;;;;;;;11.11;94.82;100843.70;1781939;80;21145;-62
2020/12/30 10:18:01;;;;;;;25.05;5.60;;;;;;;11.08;94.98;100838.94;1781847;80;21581;-62
2020/12/30 10:20:29;;;;;;;23.07;5.35;;;;;;;11.08;95.39;100825.04;1781811;80;21970;-61
2020/12/30 10:22:57;;;;;;;18.02;5.53;;;;;;;11.12;96.05;100836.06;1781964;80;21161;-62
2020/12/30 10:25:24;;;;;;;24.77;5.47;;;;;;;11.19;96.40;100827.34;1781929;80;21511;-60
2020/12/30 10:27:52;;;;;;;22.00;5.53;;;;;;;11.25;96.38;100816.85;1768084;80;21513;-61
2020/12/30 10:30:20;;;;;;;20.35;4.97;;;;;;;11.34;96.42;100819.18;1750935;82;21141;-62
2020/12/30 10:32:48;;;;;;;21.02;5.42;;;;;;;11.42;96.12;100806.37;1750878;82;21128;-62
2020/12/30 10:35:16;;;;;;;22.10;5.42;;;;;;;11.50;95.79;100809.22;1750957;82;21144;-62
2020/12/30 10:37:45;;;;;;;17.30;4.87;;;;;;;11.55;95.34;100807.22;1750899;82;21382;-62
2020/12/30 10:40:12;;;;;;;21.95;5.03;;;;;;;11.60;95.16;100814.62;1750893;82;21061;-61
2020/12/30 10:42:40;;;;;;;20.48;4.80;;;;;;;11.62;94.91;100823.53;1750943;82;21141;-62
2020/12/30 10:45:07;;;;;;;23.87;6.50;;;;;;;11.64;94.27;100804.66;1750901;82;21121;-62
2020/12/30 10:47:35;;;;;;;25.62;5.83;;;;;;;11.60;93.38;100810.60;1750905;82;21074;-62
2020/12/30 10:50:03;;;;;;;19.65;4.83;;;;;;;11.55;92.65;100809.91;1751044;80;21147;-62
2020/12/30 10:52:31;;;;;;;23.02;4.87;;;;;;;11.46;92.09;100815.16;1750965;82;21141;-63
2020/12/30 10:54:59;;;;;;;22.48;5.17;;;;;;;11.35;92.02;100810.19;1750909;82;21108;-62
2020/12/30 10:57:27;;;;;;;25.72;5.15;;;;;;;11.28;92.52;100801.97;1751000;82;21140;-62
2020/12/30 10:59:54;;;;;;;17.85;5.97;;;;;;;11.25;92.92;100805.63;1750819;82;21056;-62
2020/12/30 11:02:22;;;;;;;19.00;5.00;;;;;;;11.21;93.39;100798.63;1751023;82;21695;-62
2020/12/30 11:04:50;;;;;;;20.57;4.58;;;;;;;11.17;93.32;100799.23;1750963;82;21153;-62
2020/12/30 11:07:18;;;;;;;23.18;5.00;;;;;;;11.15;93.29;100800.21;1751045;82;21600;-62
2020/12/30 11:09:45;;;;;;;21.42;5.10;;;;;;;11.11;93.22;100801.26;1751012;82;21203;-60
2020/12/30 11:12:15;;;;;;;20.35;5.10;;;;;;;11.05;93.28;100790.28;1749268;82;21177;-62
2020/12/30 11:14:43;;;;;;;23.30;5.45;;;;;;;11.00;93.72;100797.14;1750913;82;21382;-61
2020/12/30 11:17:11;;;;;;;23.42;5.22;;;;;;;10.97;94.16;100780.30;1750870;82;21121;-62
2020/12/30 11:19:38;;;;;;;21.37;5.05;;;;;;;10.98;94.46;100805.71;1754561;80;21144;-63
2020/12/30 11:22:07;;;;;;;21.90;4.87;;;;;;;11.01;94.74;100808.28;1769970;80;21157;-60
2020/12/30 11:24:36;;;;;;;19.32;4.70;;;;;;;11.05;95.00;100798.33;1753936;80;21237;-61
2020/12/30 11:27:04;;;;;;;22.75;4.85;;;;;;;11.15;95.00;100801.06;1764843;80;21433;-63
2020/12/30 11:29:32;;;;;;;15.63;4.85;;;;;;;11.21;94.90;100796.44;1757607;80;21091;-62